Time;durP1;ratioP1;P1;durP2;ratioP2;P2;SDS_P1;SDS_P2;PMS_P1;PMS_P2;Temp;Humidity;BMP_temperature;BMP_pressure;BME280_temperature;BME280_humidity;BME280_pressure;Samples;Min_cycle;Max_cycle;Signal;HPM_P1;HPM_P2
2023/08/18 00:01:46;;;;;;;2.53;2.33;;;25.50;60.70;;;;;;5113588;28;20045;-82
2023/08/18 00:04:11;;;;;;;5.05;3.50;;;25.60;60.80;;;;;;5114110;28;20027;-82
2023/08/18 00:06:37;;;;;;;3.50;3.20;;;25.60;60.70;;;;;;5114266;28;20036;-83
2023/08/18 00:09:04;;;;;;;6.05;4.78;;;25.60;60.70;;;;;;5114104;28;20489;-82
2023/08/18 00:11:30;;;;;;;5.05;3.88;;;25.60;60.70;;;;;;5106680;28;20051;-84
2023/08/18 00:13:55;;;;;;;4.55;4.05;;;25.60;60.80;;;;;;5114164;28;20036;-82
2023/08/18 00:16:21;;;;;;;3.83;3.20;;;25.60;61.00;;;;;;5114073;28;20508;-82
2023/08/18 00:18:47;;;;;;;2.85;2.50;;;25.50;60.90;;;;;;5114415;28;20024;-84
2023/08/18 00:21:14;;;;;;;3.20;2.90;;;25.60;61.00;;;;;;5113390;28;20451;-82
2023/08/18 00:23:41;;;;;;;3.47;2.70;;;25.60;61.10;;;;;;5113961;28;20032;-82
2023/08/18 00:26:09;;;;;;;3.85;2.95;;;25.60;61.10;;;;;;5112980;28;20067;-83
2023/08/18 00:28:35;;;;;;;3.55;2.80;;;25.60;61.20;;;;;;5113118;28;20027;-83
2023/08/18 00:31:02;;;;;;;3.22;2.85;;;25.60;61.20;;;;;;5114024;28;20034;-82
2023/08/18 00:33:27;;;;;;;2.63;2.22;;;25.60;61.20;;;;;;5113314;28;20032;-83
2023/08/18 00:35:53;;;;;;;3.10;2.78;;;25.50;61.20;;;;;;5113749;28;20024;-83
2023/08/18 00:38:18;;;;;;;3.55;2.50;;;25.50;61.30;;;;;;5112976;28;20027;-82
2023/08/18 00:40:44;;;;;;;2.60;2.40;;;25.50;61.30;;;;;;5113532;28;20435;-83
2023/08/18 00:43:10;;;;;;;4.22;2.30;;;25.50;61.40;;;;;;5113197;28;20503;-83
2023/08/18 00:45:36;;;;;;;4.78;2.28;;;25.50;61.40;;;;;;5113520;28;20096;-83
2023/08/18 00:48:01;;;;;;;3.35;2.30;;;25.40;61.40;;;;;;5113022;28;20050;-82
2023/08/18 00:50:27;;;;;;;3.63;2.40;;;25.40;61.60;;;;;;5113513;28;20024;-83
2023/08/18 00:52:58;;;;;;;2.17;2.00;;;25.30;61.70;;;;;;5113494;28;20389;-82
2023/08/18 00:55:26;;;;;;;3.63;2.40;;;25.20;61.90;;;;;;5112839;28;20031;-82
2023/08/18 00:57:54;;;;;;;2.42;2.22;;;25.10;61.90;;;;;;5112917;28;20473;-83
2023/08/18 01:00:23;;;;;;;2.55;2.35;;;25.10;62.10;;;;;;5112545;28;20457;-82
2023/08/18 01:02:52;;;;;;;2.55;2.35;;;25.10;62.20;;;;;;5111828;28;20065;-83
2023/08/18 01:05:18;;;;;;;2.50;2.28;;;25.10;62.20;;;;;;5112867;28;20037;-82
2023/08/18 01:07:45;;;;;;;2.22;2.03;;;25.10;62.80;;;;;;5112899;28;20088;-82
2023/08/18 01:10:11;;;;;;;3.38;2.10;;;25.10;62.30;;;;;;5111075;28;20098;-83
2023/08/18 01:12:56;;;;;;;2.20;2.00;;;25.10;62.40;;;;;;5118399;27;20385;-83
2023/08/18 01:15:44;;;;;;;2.63;2.17;;;25.10;62.50;;;;;;5112744;28;20046;-82
2023/08/18 01:18:12;;;;;;;2.45;2.20;;;25.10;62.40;;;;;;5111779;28;20066;-82
2023/08/18 01:20:38;;;;;;;2.40;2.20;;;25.10;62.40;;;;;;5112949;28;20518;-82
2023/08/18 01:23:04;;;;;;;2.20;2.00;;;25.10;62.30;;;;;;5113159;28;20055;-82
2023/08/18 01:25:31;;;;;;;2.20;2.00;;;25.20;62.30;;;;;;5104634;28;20024;-84
2023/08/18 01:27:59;;;;;;;2.20;2.00;;;25.20;62.30;;;;;;5112612;28;20096;-83
2023/08/18 01:30:59;;;;;;;2.25;2.05;;;25.30;62.30;;;;;;5111231;28;20123;-83
2023/08/18 01:33:34;;;;;;;2.10;1.90;;;25.30;62.50;;;;;;5085651;28;20058;-82
2023/08/18 01:36:05;;;;;;;2.85;1.90;;;25.40;62.10;;;;;;5113444;28;20035;-83
2023/08/18 01:38:32;;;;;;;2.22;2.03;;;25.40;62.00;;;;;;5109414;28;20028;-82
2023/08/18 01:40:59;;;;;;;1.85;1.73;;;25.50;62.50;;;;;;5112671;28;20051;-83
2023/08/18 01:43:26;;;;;;;2.03;1.90;;;25.50;61.90;;;;;;5112255;28;20058;-82
2023/08/18 01:45:52;;;;;;;2.22;2.03;;;25.50;61.90;;;;;;5112810;28;20088;-83
2023/08/18 01:48:18;;;;;;;2.53;2.00;;;25.60;61.90;;;;;;5110567;28;20468;-83
2023/08/18 01:50:43;;;;;;;2.45;2.10;;;25.50;61.70;;;;;;5112321;28;20102;-83
2023/08/18 01:53:09;;;;;;;2.00;1.80;;;25.60;61.70;;;;;;5111843;28;20027;-83
2023/08/18 01:55:35;;;;;;;1.95;1.85;;;25.50;61.60;;;;;;5112608;28;20111;-83
2023/08/18 01:58:00;;;;;;;2.40;1.83;;;25.50;61.70;;;;;;5112392;28;20389;-81
2023/08/18 02:00:26;;;;;;;2.13;1.92;;;25.50;61.70;;;;;;5112073;28;20027;-83
2023/08/18 02:02:51;;;;;;;3.10;1.70;;;25.50;61.70;;;;;;5111386;28;20031;-83
2023/08/18 02:05:17;;;;;;;2.22;2.03;;;25.50;61.70;;;;;;5111787;28;20031;-83
2023/08/18 02:07:43;;;;;;;2.10;1.90;;;25.40;61.70;;;;;;5112100;28;20039;-82
2023/08/18 02:10:08;;;;;;;2.50;1.92;;;25.40;61.90;;;;;;5112198;28;20413;-83
2023/08/18 02:12:34;;;;;;;2.10;1.90;;;25.30;62.00;;;;;;5112278;28;20030;-83
2023/08/18 02:15:00;;;;;;;2.20;2.00;;;25.30;62.10;;;;;;5112252;28;20058;-83
2023/08/18 02:17:29;;;;;;;2.42;1.95;;;25.20;62.10;;;;;;5112131;28;20114;-83
2023/08/18 02:19:58;;;;;;;2.08;1.75;;;25.20;62.10;;;;;;5111924;28;20016;-83
2023/08/18 02:22:25;;;;;;;2.00;1.90;;;25.20;62.20;;;;;;5111475;28;20390;-83
2023/08/18 02:24:51;;;;;;;2.08;1.90;;;25.30;62.20;;;;;;5112214;28;20020;-82
2023/08/18 02:27:17;;;;;;;1.80;1.70;;;25.30;62.10;;;;;;5111593;28;20122;-83
2023/08/18 02:29:43;;;;;;;3.90;2.40;;;25.40;62.10;;;;;;5114698;28;20106;-83
2023/08/18 02:32:08;;;;;;;2.38;2.17;;;25.40;62.00;;;;;;5114520;28;20455;-83
2023/08/18 02:34:34;;;;;;;2.47;2.10;;;25.40;61.90;;;;;;5116060;28;20027;-83
2023/08/18 02:37:00;;;;;;;2.30;2.10;;;25.40;62.00;;;;;;5115216;28;20401;-82
2023/08/18 02:39:25;;;;;;;2.28;2.08;;;25.40;62.00;;;;;;5115539;28;20043;-82
2023/08/18 02:41:51;;;;;;;3.10;2.20;;;25.40;62.00;;;;;;5115921;28;20106;-82
2023/08/18 02:44:18;;;;;;;2.55;2.30;;;25.40;62.00;;;;;;5115370;27;20454;-83
2023/08/18 02:46:43;;;;;;;2.75;2.17;;;25.40;62.00;;;;;;5114200;28;20439;-83
2023/08/18 02:49:09;;;;;;;2.85;2.10;;;25.30;61.90;;;;;;5115681;28;20032;-83
2023/08/18 02:51:35;;;;;;;2.08;1.88;;;25.30;61.90;;;;;;5115550;28;20068;-82
2023/08/18 02:54:00;;;;;;;2.58;2.25;;;25.30;62.00;;;;;;5114341;28;20024;-82
2023/08/18 02:56:26;;;;;;;2.33;2.13;;;25.30;62.00;;;;;;5114872;28;20034;-83
2023/08/18 02:58:52;;;;;;;2.85;2.25;;;25.30;62.10;;;;;;5115668;28;20114;-83
2023/08/18 03:01:18;;;;;;;3.08;2.47;;;25.30;62.00;;;;;;5115384;28;20461;-83
2023/08/18 03:03:44;;;;;;;2.20;2.00;;;25.30;62.10;;;;;;5115699;28;20024;-83
2023/08/18 03:06:09;;;;;;;2.15;1.95;;;25.30;62.10;;;;;;5115687;28;20030;-83
2023/08/18 03:08:36;;;;;;;2.20;2.00;;;25.30;62.10;;;;;;5114333;28;20040;-83
2023/08/18 03:11:02;;;;;;;2.33;2.03;;;25.30;62.10;;;;;;5115783;28;20073;-83
2023/08/18 03:13:28;;;;;;;3.00;2.10;;;25.30;62.10;;;;;;5116226;28;20370;-84
2023/08/18 03:15:54;;;;;;;2.75;2.15;;;25.30;62.10;;;;;;5116152;28;20104;-83
2023/08/18 03:18:20;;;;;;;2.30;2.10;;;25.40;62.10;;;;;;5115241;28;20031;-83
2023/08/18 03:20:47;;;;;;;2.50;2.28;;;25.40;62.10;;;;;;5113752;28;20038;-82
2023/08/18 03:23:19;;;;;;;3.08;2.28;;;25.40;62.10;;;;;;5113572;28;20024;-83
2023/08/18 03:25:45;;;;;;;2.88;2.30;;;25.40;62.00;;;;;;5114743;28;20024;-83
2023/08/18 03:28:11;;;;;;;4.45;2.40;;;25.40;62.00;;;;;;5114775;28;20123;-83
2023/08/18 03:30:37;;;;;;;3.05;2.42;;;25.40;62.00;;;;;;5115134;28;20064;-83
2023/08/18 03:33:03;;;;;;;2.40;2.20;;;25.50;62.10;;;;;;5114784;28;20036;-83
2023/08/18 03:35:31;;;;;;;2.20;2.00;;;25.50;61.90;;;;;;5111433;28;20486;-83
2023/08/18 03:37:58;;;;;;;2.30;2.10;;;25.50;61.90;;;;;;5114693;28;20107;-83
2023/08/18 03:40:24;;;;;;;2.13;1.92;;;25.60;61.90;;;;;;5112063;28;20461;-83
2023/08/18 03:42:50;;;;;;;2.22;1.90;;;25.60;61.90;;;;;;5114777;28;20053;-83
2023/08/18 03:45:16;;;;;;;2.45;2.10;;;25.60;61.80;;;;;;5114412;28;20060;-83
2023/08/18 03:47:42;;;;;;;2.20;2.00;;;25.70;61.80;;;;;;5113988;28;20043;-83
2023/08/18 03:50:08;;;;;;;2.13;1.92;;;25.70;61.80;;;;;;5114301;28;20028;-83
2023/08/18 03:52:34;;;;;;;2.03;1.83;;;25.70;61.70;;;;;;5114237;28;20020;-82
2023/08/18 03:54:59;;;;;;;2.83;2.00;;;25.80;62.40;;;;;;5114312;28;20038;-83
2023/08/18 03:57:25;;;;;;;2.33;2.00;;;25.80;61.80;;;;;;5114392;28;20487;-84
2023/08/18 03:59:53;;;;;;;1.83;1.73;;;25.80;61.70;;;;;;5114458;28;20024;-84
2023/08/18 04:02:18;;;;;;;2.70;2.00;;;25.80;61.70;;;;;;5113830;28;20326;-83
2023/08/18 04:04:44;;;;;;;2.05;1.95;;;25.80;61.70;;;;;;5114771;28;20106;-83
2023/08/18 04:07:10;;;;;;;2.30;1.95;;;25.80;61.70;;;;;;5113565;28;20031;-82
2023/08/18 04:09:35;;;;;;;2.28;1.92;;;25.70;61.70;;;;;;5114042;28;20126;-83
2023/08/18 04:12:01;;;;;;;2.22;2.00;;;25.60;61.80;;;;;;5114522;28;20112;-82
2023/08/18 04:14:27;;;;;;;2.13;2.00;;;25.50;62.00;;;;;;5114229;28;20027;-84
2023/08/18 04:16:53;;;;;;;2.30;2.10;;;25.40;62.00;;;;;;5114312;28;20031;-82
2023/08/18 04:19:18;;;;;;;2.30;2.10;;;25.40;62.10;;;;;;5113757;28;20077;-83
2023/08/18 04:21:44;;;;;;;2.50;2.10;;;25.40;62.30;;;;;;5113820;28;20130;-82
2023/08/18 04:24:09;;;;;;;3.30;2.67;;;25.30;62.40;;;;;;5114043;27;20035;-82
2023/08/18 04:26:35;;;;;;;2.50;2.30;;;25.20;62.50;;;;;;5114154;28;20039;-83
2023/08/18 04:29:02;;;;;;;2.97;2.10;;;25.20;62.60;;;;;;5112099;28;20070;-82
2023/08/18 04:31:28;;;;;;;2.92;1.92;;;25.20;62.70;;;;;;5112468;28;20027;-82
2023/08/18 04:33:54;;;;;;;2.83;2.30;;;25.20;62.60;;;;;;5113733;28;20080;-83
2023/08/18 04:36:20;;;;;;;2.70;2.30;;;25.20;62.60;;;;;;5112991;28;20036;-82
2023/08/18 04:38:46;;;;;;;3.10;2.40;;;25.20;62.70;;;;;;5112119;28;20035;-84
2023/08/18 04:41:11;;;;;;;2.17;2.05;;;25.20;62.60;;;;;;5113292;28;20123;-84
2023/08/18 04:43:37;;;;;;;3.00;2.50;;;25.30;62.70;;;;;;5112208;28;20442;-83
2023/08/18 04:46:03;;;;;;;2.50;2.28;;;25.30;62.50;;;;;;5110946;28;20042;-77
2023/08/18 04:48:29;;;;;;;3.92;2.25;;;25.40;62.50;;;;;;5106816;28;20089;-77
2023/08/18 04:50:54;;;;;;;2.50;2.30;;;25.40;63.10;;;;;;5113032;28;20450;-77
2023/08/18 04:53:20;;;;;;;2.85;2.45;;;25.40;62.50;;;;;;5112896;28;21779;-78
2023/08/18 04:55:46;;;;;;;4.22;3.40;;;25.40;62.40;;;;;;5112599;28;20027;-83
2023/08/18 04:58:15;;;;;;;2.90;2.60;;;25.50;62.30;;;;;;5106730;28;20366;-81
2023/08/18 05:00:42;;;;;;;2.55;2.35;;;25.60;62.20;;;;;;5112814;28;20032;-82
2023/08/18 05:03:07;;;;;;;2.80;2.45;;;25.60;62.20;;;;;;5106930;28;20028;-81
2023/08/18 05:05:45;;;;;;;2.30;2.05;;;25.50;62.10;;;;;;5113894;28;20020;-81
2023/08/18 05:08:11;;;;;;;3.80;2.33;;;25.60;62.10;;;;;;5106005;28;20039;-82
2023/08/18 05:10:36;;;;;;;2.42;2.20;;;25.50;61.80;;;;;;5113697;28;20424;-81
2023/08/18 05:13:02;;;;;;;2.47;2.28;;;25.50;61.80;;;;;;5114044;28;20023;-80
2023/08/18 05:15:28;;;;;;;2.72;2.20;;;25.50;61.80;;;;;;5113655;28;20027;-80
2023/08/18 05:17:53;;;;;;;2.40;2.10;;;25.60;61.90;;;;;;5113749;28;20465;-80
2023/08/18 05:20:19;;;;;;;3.45;3.15;;;25.60;61.90;;;;;;5113605;28;20103;-79
2023/08/18 05:22:44;;;;;;;2.92;2.40;;;25.60;61.90;;;;;;5112573;28;20031;-80
2023/08/18 05:25:11;;;;;;;4.10;2.58;;;25.60;61.80;;;;;;5113480;28;20026;-82
2023/08/18 05:27:37;;;;;;;4.53;2.40;;;25.70;61.80;;;;;;5113560;28;20080;-80
2023/08/18 05:30:04;;;;;;;2.53;2.00;;;25.70;61.80;;;;;;5113435;28;20059;-80
2023/08/18 05:32:30;;;;;;;2.78;2.45;;;25.70;61.70;;;;;;5112158;28;20035;-82
2023/08/18 05:34:56;;;;;;;2.17;1.90;;;25.70;61.50;;;;;;5113857;28;20027;-80
2023/08/18 05:37:24;;;;;;;2.60;2.10;;;25.70;61.50;;;;;;5113577;28;20032;-82
2023/08/18 05:39:50;;;;;;;2.85;2.20;;;25.70;61.50;;;;;;5114178;28;20051;-83
2023/08/18 05:42:16;;;;;;;2.75;2.30;;;25.70;61.50;;;;;;5113735;28;20051;-83
2023/08/18 05:44:42;;;;;;;2.30;2.10;;;25.70;62.00;;;;;;5113604;28;20107;-84
2023/08/18 05:47:08;;;;;;;2.17;1.98;;;25.70;61.40;;;;;;5113158;28;20039;-84
2023/08/18 05:49:33;;;;;;;2.45;2.00;;;25.70;61.30;;;;;;5113616;28;20028;-82
2023/08/18 05:51:59;;;;;;;2.22;2.00;;;25.80;61.30;;;;;;5113962;28;20034;-84
2023/08/18 05:54:26;;;;;;;2.03;1.92;;;25.80;61.90;;;;;;5113107;28;20038;-82
2023/08/18 05:56:51;;;;;;;2.67;2.13;;;25.90;61.20;;;;;;5113305;28;20046;-79
2023/08/18 05:59:17;;;;;;;2.60;2.00;;;25.90;61.00;;;;;;5110482;28;20024;-84
2023/08/18 06:01:43;;;;;;;2.92;2.05;;;25.90;61.00;;;;;;5111593;28;20051;-82
2023/08/18 06:04:09;;;;;;;2.40;2.20;;;25.90;60.90;;;;;;5114888;28;20069;-81
2023/08/18 06:06:34;;;;;;;3.35;2.20;;;25.90;60.80;;;;;;5115385;28;20488;-81
2023/08/18 06:09:01;;;;;;;3.58;2.10;;;25.90;60.80;;;;;;5114631;28;20433;-84
2023/08/18 06:11:27;;;;;;;32.10;26.45;;;25.90;60.70;;;;;;5115458;28;20101;-81
2023/08/18 06:13:53;;;;;;;27.58;23.23;;;26.00;60.80;;;;;;5115337;28;20030;-84
2023/08/18 06:16:19;;;;;;;18.55;15.07;;;26.00;60.70;;;;;;5116151;28;20020;-86
2023/08/18 06:18:44;;;;;;;15.10;13.10;;;26.00;60.50;;;;;;5116401;28;20023;-71
2023/08/18 06:21:10;;;;;;;15.50;12.48;;;26.00;60.60;;;;;;5115638;28;20027;-67
2023/08/18 06:23:36;;;;;;;11.50;10.25;;;26.00;61.40;;;;;;5114795;28;20020;-72
2023/08/18 06:26:02;;;;;;;10.15;9.02;;;26.00;60.70;;;;;;5117131;28;20370;-70
2023/08/18 06:28:28;;;;;;;9.52;8.52;;;26.10;60.70;;;;;;5117125;28;20027;-71
2023/08/18 06:30:53;;;;;;;8.25;6.28;;;26.10;60.60;;;;;;5116180;28;20434;-69
2023/08/18 06:33:19;;;;;;;6.60;5.10;;;26.10;60.50;;;;;;5115256;28;20028;-70
2023/08/18 06:35:48;;;;;;;5.57;4.55;;;26.20;60.50;;;;;;5117152;28;20031;-70
2023/08/18 06:38:13;;;;;;;5.95;4.28;;;26.20;60.30;;;;;;5115527;28;20477;-70
2023/08/18 06:40:43;;;;;;;5.32;4.63;;;26.20;60.20;;;;;;5116182;28;20028;-71
2023/08/18 06:43:08;;;;;;;4.30;3.80;;;26.30;60.30;;;;;;5115153;28;20028;-69
2023/08/18 06:45:34;;;;;;;4.90;4.10;;;26.30;60.10;;;;;;5114937;28;20024;-70
2023/08/18 06:47:59;;;;;;;5.60;3.47;;;26.30;60.20;;;;;;5116323;28;20031;-68
2023/08/18 06:50:25;;;;;;;3.45;3.08;;;26.40;60.20;;;;;;5115286;28;20034;-68
2023/08/18 06:52:51;;;;;;;3.83;2.67;;;26.40;60.20;;;;;;5115439;28;20035;-68
2023/08/18 06:55:16;;;;;;;2.75;2.50;;;26.40;59.90;;;;;;5115203;28;20028;-72
2023/08/18 06:57:42;;;;;;;3.00;2.40;;;26.50;59.80;;;;;;5115152;28;20027;-72
2023/08/18 07:00:09;;;;;;;2.70;2.35;;;26.50;59.70;;;;;;5113287;28;20131;-74
2023/08/18 07:02:35;;;;;;;24.30;21.70;;;26.50;59.60;;;;;;5114203;28;20380;-82
2023/08/18 07:05:01;;;;;;;2.53;2.33;;;26.50;59.50;;;;;;5113965;28;20032;-77
2023/08/18 07:07:26;;;;;;;3.38;2.10;;;26.50;59.40;;;;;;5114687;28;20031;-74
2023/08/18 07:09:52;;;;;;;2.08;1.90;;;26.60;59.40;;;;;;5115601;27;20046;-80
2023/08/18 07:12:19;;;;;;;2.10;1.90;;;26.60;59.30;;;;;;5114978;28;20027;-77
2023/08/18 07:14:45;;;;;;;2.17;2.00;;;26.60;59.20;;;;;;5116510;28;20023;-76
2023/08/18 07:17:10;;;;;;;1.80;1.70;;;26.70;59.20;;;;;;5116600;28;20504;-75
2023/08/18 07:19:36;;;;;;;1.90;1.80;;;26.70;59.00;;;;;;5141608;27;20024;-76
2023/08/18 07:22:03;;;;;;;2.25;1.92;;;26.70;59.00;;;;;;5117890;28;20028;-76
2023/08/18 07:24:29;;;;;;;1.83;1.73;;;26.80;58.90;;;;;;5116360;28;20023;-75
2023/08/18 07:26:55;;;;;;;3.45;3.08;;;26.70;58.60;;;;;;5117111;27;20080;-75
2023/08/18 07:29:20;;;;;;;2.47;1.63;;;26.80;58.50;;;;;;5111684;28;20038;-75
2023/08/18 07:31:46;;;;;;;2.42;1.85;;;26.80;58.50;;;;;;5128558;27;20050;-73
2023/08/18 07:34:11;;;;;;;1.98;1.77;;;26.80;58.50;;;;;;5112096;28;20023;-81
2023/08/18 07:36:39;;;;;;;2.20;1.73;;;26.80;58.40;;;;;;5112287;28;20464;-84
2023/08/18 07:39:10;;;;;;;1.85;1.60;;;26.90;58.40;;;;;;5112540;28;20027;-79
2023/08/18 07:41:40;;;;;;;2.47;1.90;;;26.90;58.30;;;;;;5110120;28;20027;-81
2023/08/18 07:44:06;;;;;;;1.73;1.63;;;26.90;58.10;;;;;;5113313;28;20050;-79
2023/08/18 07:46:33;;;;;;;1.65;1.55;;;26.90;57.90;;;;;;5111086;28;20027;-80
2023/08/18 07:48:59;;;;;;;1.60;1.50;;;27.00;57.90;;;;;;5113439;28;20110;-75
2023/08/18 07:51:24;;;;;;;1.95;1.77;;;27.00;57.70;;;;;;5109675;27;20553;-78
2023/08/18 07:53:51;;;;;;;2.25;2.05;;;27.00;57.50;;;;;;5131843;27;20076;-77
2023/08/18 07:56:16;;;;;;;2.70;1.80;;;27.00;57.40;;;;;;5110982;28;20051;-73
2023/08/18 07:58:42;;;;;;;1.80;1.70;;;27.00;57.30;;;;;;5113575;28;20131;-79
2023/08/18 08:01:08;;;;;;;1.55;1.45;;;27.00;57.20;;;;;;5113938;28;20031;-78
2023/08/18 08:03:36;;;;;;;2.13;1.65;;;27.00;57.10;;;;;;5110527;28;20141;-81
2023/08/18 08:06:04;;;;;;;1.48;1.38;;;27.00;56.90;;;;;;5114480;28;20039;-81
2023/08/18 08:08:30;;;;;;;2.08;1.50;;;27.10;56.80;;;;;;5114738;28;20035;-80
2023/08/18 08:10:57;;;;;;;1.92;1.60;;;27.10;56.70;;;;;;5114525;28;20055;-79
2023/08/18 08:13:23;;;;;;;2.00;1.50;;;27.10;56.80;;;;;;5114299;28;20035;-79
2023/08/18 08:15:48;;;;;;;1.75;1.65;;;27.10;56.70;;;;;;5132352;27;20380;-78
2023/08/18 08:18:15;;;;;;;1.67;1.58;;;27.10;56.60;;;;;;5116836;27;20031;-75
2023/08/18 08:20:42;;;;;;;3.47;2.00;;;27.20;56.70;;;;;;5112774;28;20033;-72
2023/08/18 08:23:08;;;;;;;3.95;2.55;;;27.20;56.40;;;;;;5114035;28;20051;-90
2023/08/18 08:25:34;;;;;;;1.50;1.40;;;27.20;56.40;;;;;;5113525;28;20379;-88
2023/08/18 08:28:01;;;;;;;2.75;2.47;;;27.20;56.40;;;;;;5114346;28;20060;-83
2023/08/18 08:30:31;;;;;;;1.45;1.35;;;27.30;56.40;;;;;;5115171;28;20505;-83
2023/08/18 08:32:57;;;;;;;1.60;1.50;;;27.30;56.80;;;;;;5114994;28;20035;-83
2023/08/18 08:35:22;;;;;;;2.28;1.50;;;27.30;56.10;;;;;;5113643;28;20103;-83
2023/08/18 08:37:48;;;;;;;1.60;1.50;;;27.40;56.00;;;;;;5114309;28;20059;-83
2023/08/18 08:40:18;;;;;;;1.73;1.48;;;27.40;55.90;;;;;;5114113;28;20488;-82
2023/08/18 08:42:53;;;;;;;1.40;1.30;;;27.40;55.70;;;;;;5114279;28;20023;-87
2023/08/18 08:45:20;;;;;;;2.33;1.58;;;27.50;55.70;;;;;;5114022;28;20032;-87
2023/08/18 08:47:47;;;;;;;1.60;1.50;;;27.50;55.60;;;;;;5113854;27;20027;-87
2023/08/18 08:50:15;;;;;;;1.63;1.40;;;27.50;55.40;;;;;;5114360;28;20031;-87
2023/08/18 08:52:42;;;;;;;1.60;1.48;;;27.60;55.40;;;;;;5113881;28;20028;-87
2023/08/18 08:55:08;;;;;;;1.60;1.50;;;27.60;55.10;;;;;;5113720;28;20071;-87
2023/08/18 08:57:34;;;;;;;1.70;1.60;;;27.60;55.00;;;;;;5114511;28;20098;-86
2023/08/18 09:00:00;;;;;;;1.75;1.40;;;27.60;54.80;;;;;;5112419;28;20076;-87
2023/08/18 09:02:26;;;;;;;1.60;1.40;;;27.70;54.90;;;;;;5113900;28;20415;-85
2023/08/18 09:04:51;;;;;;;2.50;1.60;;;27.70;55.00;;;;;;5111975;28;20035;-87
2023/08/18 09:07:17;;;;;;;1.40;1.30;;;27.70;54.90;;;;;;5113268;28;20062;-86
2023/08/18 09:09:43;;;;;;;1.40;1.30;;;27.70;54.80;;;;;;5113577;28;20043;-88
2023/08/18 09:12:10;;;;;;;1.48;1.38;;;27.70;54.60;;;;;;5112248;28;20040;-74
2023/08/18 09:14:38;;;;;;;2.38;1.50;;;27.70;54.40;;;;;;5113342;28;20449;-75
2023/08/18 09:17:04;;;;;;;1.58;1.48;;;27.80;54.40;;;;;;5113409;27;20019;-74
2023/08/18 09:19:31;;;;;;;2.60;1.50;;;27.80;54.30;;;;;;5112888;28;20099;-75
2023/08/18 09:21:58;;;;;;;1.45;1.35;;;27.80;54.30;;;;;;5113143;28;20016;-75
2023/08/18 09:24:25;;;;;;;1.85;1.52;;;27.90;54.20;;;;;;5113386;27;20387;-74
2023/08/18 09:26:50;;;;;;;1.70;1.60;;;27.90;54.20;;;;;;5113337;28;20039;-74
2023/08/18 09:29:16;;;;;;;1.42;1.33;;;27.90;54.10;;;;;;5113016;28;20058;-74
2023/08/18 09:31:45;;;;;;;1.70;1.60;;;27.90;54.10;;;;;;5113242;28;20030;-74
2023/08/18 09:34:19;;;;;;;1.48;1.38;;;27.90;54.00;;;;;;5113158;28;20020;-75
2023/08/18 09:36:54;;;;;;;1.35;1.25;;;27.90;53.70;;;;;;5112757;28;20055;-75
2023/08/18 09:39:20;;;;;;;2.33;1.40;;;28.00;53.60;;;;;;5112660;28;20062;-75
2023/08/18 09:41:53;;;;;;;1.50;1.40;;;28.00;53.70;;;;;;5113275;28;20473;-74
2023/08/18 09:44:22;;;;;;;1.23;1.13;;;28.00;53.60;;;;;;5111936;28;20027;-74
2023/08/18 09:46:56;;;;;;;1.50;1.40;;;28.00;53.60;;;;;;5112607;28;20031;-74
2023/08/18 09:49:23;;;;;;;1.45;1.33;;;28.10;53.60;;;;;;5113185;28;20016;-74
2023/08/18 09:52:01;;;;;;;1.50;1.20;;;28.10;53.40;;;;;;5112095;28;20112;-74
2023/08/18 09:54:28;;;;;;;1.70;1.60;;;28.10;53.40;;;;;;5112469;28;20046;-74
2023/08/18 09:56:59;;;;;;;1.10;1.10;;;28.20;53.30;;;;;;5111682;28;20422;-74
2023/08/18 09:59:32;;;;;;;1.27;1.17;;;28.20;53.40;;;;;;5112870;28;20027;-75
2023/08/18 10:01:58;;;;;;;1.55;1.45;;;28.20;53.30;;;;;;5113357;28;20030;-75
2023/08/18 10:04:25;;;;;;;1.70;1.50;;;28.20;53.30;;;;;;5112623;28;20030;-76
2023/08/18 10:06:54;;;;;;;2.60;1.70;;;28.20;53.20;;;;;;5112811;28;20542;-74
2023/08/18 10:09:22;;;;;;;2.55;1.20;;;28.20;53.10;;;;;;5111304;28;20035;-74
2023/08/18 10:11:50;;;;;;;1.90;1.60;;;28.30;53.20;;;;;;5112941;28;20028;-75
2023/08/18 10:14:18;;;;;;;1.52;1.40;;;28.30;53.00;;;;;;5112601;28;20027;-74
2023/08/18 10:16:46;;;;;;;1.75;1.58;;;28.30;53.10;;;;;;5113033;28;20377;-74
2023/08/18 10:19:12;;;;;;;1.75;1.65;;;28.30;53.10;;;;;;5112701;28;20035;-75
2023/08/18 10:21:38;;;;;;;1.40;1.20;;;28.30;53.10;;;;;;5112565;28;20042;-74
2023/08/18 10:24:05;;;;;;;1.67;1.58;;;28.30;53.10;;;;;;5112567;28;20020;-74
2023/08/18 10:26:34;;;;;;;1.92;1.55;;;28.40;53.10;;;;;;5111303;28;20058;-74
2023/08/18 10:29:16;;;;;;;1.70;1.60;;;28.40;52.90;;;;;;5113148;28;20118;-74
2023/08/18 10:31:48;;;;;;;2.25;1.48;;;28.40;52.80;;;;;;5112857;28;20373;-74
2023/08/18 10:34:22;;;;;;;1.35;1.27;;;28.50;52.80;;;;;;5112266;28;20168;-74
2023/08/18 10:36:57;;;;;;;1.48;1.38;;;28.50;52.90;;;;;;5112738;28;20117;-74
2023/08/18 10:39:24;;;;;;;1.98;1.52;;;28.50;52.70;;;;;;5111821;28;20081;-74
2023/08/18 10:42:15;;;;;;;2.97;1.42;;;28.50;52.70;;;;;;5112971;28;20090;-73
2023/08/18 10:45:05;;;;;;;1.55;1.45;;;28.50;52.50;;;;;;5111195;28;20028;-74
2023/08/18 10:47:33;;;;;;;1.63;1.35;;;28.60;52.50;;;;;;5112761;28;20035;-74
2023/08/18 10:49:59;;;;;;;1.42;1.33;;;28.60;53.10;;;;;;5113577;28;20103;-74
2023/08/18 10:52:30;;;;;;;3.97;1.60;;;28.60;52.30;;;;;;5115992;27;20027;-75
2023/08/18 10:54:56;;;;;;;2.10;1.70;;;28.70;52.10;;;;;;5112335;28;20077;-74
2023/08/18 10:57:23;;;;;;;1.42;1.33;;;28.70;52.00;;;;;;5115080;28;20050;-74
2023/08/18 10:59:50;;;;;;;1.50;1.40;;;28.80;52.10;;;;;;5116018;28;20020;-75
2023/08/18 11:02:17;;;;;;;1.58;1.48;;;28.80;52.00;;;;;;5116431;28;20062;-74
2023/08/18 11:04:42;;;;;;;1.40;1.30;;;28.80;52.00;;;;;;5115410;28;20032;-74
2023/08/18 11:07:09;;;;;;;1.80;1.70;;;28.80;52.00;;;;;;5115972;28;20035;-74
2023/08/18 11:09:36;;;;;;;1.98;1.40;;;28.80;51.80;;;;;;5115902;28;20080;-74
2023/08/18 11:12:06;;;;;;;4.00;1.48;;;28.80;51.90;;;;;;5116058;28;20128;-74
2023/08/18 11:14:31;;;;;;;2.00;1.85;;;28.80;51.90;;;;;;5114110;28;20525;-74
2023/08/18 11:16:57;;;;;;;1.83;1.58;;;28.80;51.80;;;;;;5116325;28;20107;-75
2023/08/18 11:19:22;;;;;;;1.45;1.35;;;28.80;51.90;;;;;;5116390;28;20039;-75
2023/08/18 11:21:48;;;;;;;1.45;1.30;;;28.90;51.80;;;;;;5115956;28;20032;-75
2023/08/18 11:24:14;;;;;;;1.40;1.30;;;28.90;51.80;;;;;;5113938;28;20031;-75
2023/08/18 11:26:40;;;;;;;2.33;1.45;;;29.00;51.70;;;;;;5115606;28;20104;-75
2023/08/18 11:29:06;;;;;;;3.10;1.80;;;29.00;51.70;;;;;;5115450;28;20027;-75
2023/08/18 11:31:32;;;;;;;1.90;1.50;;;29.00;51.40;;;;;;5115723;28;20032;-74
2023/08/18 11:33:59;;;;;;;1.35;1.30;;;29.00;51.50;;;;;;5114250;28;20024;-75
2023/08/18 11:36:31;;;;;;;1.52;1.42;;;29.10;51.50;;;;;;5115556;28;20381;-74
2023/08/18 11:39:07;;;;;;;1.50;1.40;;;29.10;51.50;;;;;;5112292;28;20111;-75
2023/08/18 11:41:45;;;;;;;2.08;1.40;;;29.10;51.50;;;;;;5114324;28;20434;-74
2023/08/18 11:44:14;;;;;;;1.40;1.30;;;29.10;51.40;;;;;;5115232;28;20031;-74
2023/08/18 11:46:40;;;;;;;1.50;1.40;;;29.10;51.50;;;;;;5114139;28;20106;-74
2023/08/18 11:49:15;;;;;;;2.10;1.50;;;29.20;51.50;;;;;;5115449;28;20442;-74
2023/08/18 11:52:03;;;;;;;1.20;1.20;;;29.10;51.40;;;;;;5115396;28;20081;-74
2023/08/18 11:54:32;;;;;;;2.42;1.48;;;29.10;50.90;;;;;;5113572;28;20379;-74
2023/08/18 11:56:58;;;;;;;1.90;1.63;;;29.10;51.40;;;;;;5113519;28;20066;-74
2023/08/18 11:59:25;;;;;;;1.75;1.30;;;29.20;51.40;;;;;;5114878;28;20081;-74
2023/08/18 12:01:58;;;;;;;1.05;1.05;;;29.20;51.40;;;;;;5112844;28;20023;-74
2023/08/18 12:04:25;;;;;;;1.20;1.20;;;29.20;51.40;;;;;;5114876;28;20039;-75
2023/08/18 12:06:52;;;;;;;1.30;1.20;;;29.30;51.50;;;;;;5115016;28;20036;-75
2023/08/18 12:09:18;;;;;;;2.83;1.20;;;29.20;51.40;;;;;;5114872;28;20031;-75
2023/08/18 12:11:43;;;;;;;1.30;1.25;;;29.30;51.50;;;;;;5113905;28;20412;-75
2023/08/18 12:14:09;;;;;;;1.70;1.27;;;29.20;51.50;;;;;;5114290;28;20024;-75
2023/08/18 12:16:34;;;;;;;1.60;1.50;;;29.20;51.60;;;;;;5114548;28;20027;-75
2023/08/18 12:19:01;;;;;;;1.70;1.50;;;29.20;51.60;;;;;;5114496;28;20024;-75
2023/08/18 12:21:27;;;;;;;1.23;1.10;;;29.20;51.60;;;;;;5114501;28;20036;-75
2023/08/18 12:23:53;;;;;;;1.30;1.20;;;29.20;51.60;;;;;;5114514;28;20047;-74
2023/08/18 12:26:18;;;;;;;1.50;1.40;;;29.20;51.60;;;;;;5114654;28;20413;-74
2023/08/18 12:28:44;;;;;;;1.85;1.40;;;29.20;51.60;;;;;;5114480;28;20381;-75
2023/08/18 12:31:10;;;;;;;1.40;1.30;;;29.30;51.70;;;;;;5114917;28;20048;-75
2023/08/18 12:33:36;;;;;;;1.35;1.30;;;29.20;51.60;;;;;;5114045;28;20054;-74
2023/08/18 12:36:02;;;;;;;1.55;1.45;;;29.30;51.60;;;;;;5114296;28;20020;-75
2023/08/18 12:38:28;;;;;;;1.35;1.25;;;29.30;51.50;;;;;;5114329;28;20073;-75
2023/08/18 12:40:54;;;;;;;1.60;1.50;;;29.40;51.60;;;;;;5114352;28;20019;-75
2023/08/18 12:43:19;;;;;;;1.50;1.40;;;29.40;51.50;;;;;;5113734;28;20028;-75
2023/08/18 12:45:45;;;;;;;1.20;1.20;;;29.40;51.50;;;;;;5114263;28;20023;-74